createdAt,value
2019-05-30T00:04:31.497Z,2.67
2019-05-30T00:09:35.174Z,4.70
2019-05-30T00:14:38.869Z,3.53
2019-05-30T00:19:42.542Z,2.67
2019-05-30T00:24:46.663Z,3.40
2019-05-30T00:29:50.549Z,2.70
2019-05-30T00:34:55.546Z,3.13
2019-05-30T00:39:59.879Z,3.20
2019-05-30T00:45:19.603Z,6.87
2019-05-30T00:50:09.492Z,6.03
2019-05-30T00:55:13.390Z,4.27
2019-05-30T01:00:18.333Z,4.93
2019-05-30T01:05:22.050Z,6.33
2019-05-30T01:10:25.759Z,5.37
2019-05-30T01:15:29.454Z,6.20
2019-05-30T01:20:33.192Z,4.90
2019-05-30T01:25:37.194Z,6.53
2019-05-30T01:30:41.017Z,4.17
2019-05-30T01:35:44.690Z,5.77
2019-05-30T01:40:48.437Z,3.70
2019-05-30T01:45:52.422Z,4.30
2019-05-30T01:50:56.086Z,5.50
2019-05-30T01:56:00.688Z,3.77
2019-05-30T02:01:19.077Z,6.07
2019-05-30T02:06:45.767Z,7.03
2019-05-30T02:11:49.823Z,4.80
2019-05-30T02:16:54.488Z,5.73
2019-05-30T02:21:58.191Z,4.30
2019-05-30T02:27:02.227Z,3.03
2019-05-30T02:32:07.041Z,4.23
2019-05-30T02:37:12.768Z,5.00
2019-05-30T02:42:16.480Z,3.97
2019-05-30T02:47:22.465Z,5.33
2019-05-30T02:52:25.523Z,5.30
2019-05-30T02:57:29.256Z,5.27
2019-05-30T03:02:32.935Z,3.73
2019-05-30T03:07:36.744Z,9.90
2019-05-30T03:12:40.621Z,6.87
2019-05-30T03:17:44.298Z,3.00
2019-05-30T03:22:47.966Z,3.87
2019-05-30T03:27:51.732Z,2.27
2019-05-30T03:33:15.837Z,5.57
2019-05-30T03:38:01.006Z,4.07
2019-05-30T03:43:05.977Z,5.83
2019-05-30T03:48:15.582Z,2.70
2019-05-30T03:53:19.163Z,8.07
2019-05-30T03:58:31.858Z,5.43
2019-05-30T04:03:41.026Z,2.90
2019-05-30T04:08:48.422Z,3.20
2019-05-30T04:13:56.160Z,3.40
2019-05-30T04:18:59.883Z,3.77
2019-05-30T04:24:07.308Z,3.13
2019-05-30T04:29:12.206Z,2.97
2019-05-30T04:34:17.706Z,5.03
2019-05-30T04:39:21.979Z,2.70
2019-05-30T04:44:25.668Z,4.67
2019-05-30T04:49:29.404Z,3.30
2019-05-30T04:54:33.156Z,8.47
2019-05-30T04:59:36.868Z,2.17
2019-05-30T05:04:40.591Z,4.43
2019-05-30T05:09:44.874Z,2.43
2019-05-30T05:14:48.805Z,3.20
2019-05-30T05:19:52.790Z,2.13
2019-05-30T05:24:56.736Z,4.73
2019-05-30T05:30:00.667Z,4.23
2019-05-30T05:35:04.645Z,3.57
2019-05-30T05:40:08.400Z,3.27
2019-05-30T05:45:12.592Z,4.33
2019-05-30T05:50:16.739Z,1.87
2019-05-30T05:55:20.920Z,3.17
2019-05-30T06:00:25.290Z,3.63
2019-05-30T06:05:29.083Z,3.40
2019-05-30T06:10:33.262Z,4.23
2019-05-30T06:15:37.262Z,2.50
2019-05-30T06:20:42.695Z,3.70
2019-05-30T06:25:46.361Z,1.87
2019-05-30T06:30:50.110Z,1.67
2019-05-30T06:35:53.851Z,3.03
2019-05-30T06:40:57.530Z,4.00
2019-05-30T06:46:01.201Z,3.70
2019-05-30T06:51:04.963Z,1.63
2019-05-30T06:56:08.666Z,4.20
2019-05-30T07:01:12.835Z,1.60
2019-05-30T07:06:16.918Z,3.23
2019-05-30T07:11:20.797Z,2.23
2019-05-30T07:16:25.346Z,2.33
2019-05-30T07:21:29.780Z,3.13
2019-05-30T07:26:34.050Z,3.23
2019-05-30T07:31:37.847Z,2.67
2019-05-30T07:36:41.748Z,1.90
2019-05-30T07:41:45.444Z,2.60
2019-05-30T07:46:49.148Z,2.23
2019-05-30T07:51:53.053Z,2.30
2019-05-30T07:56:57.231Z,1.13
2019-05-30T08:02:00.991Z,2.00
2019-05-30T08:07:05.117Z,2.43
2019-05-30T08:12:09.666Z,4.00
2019-05-30T08:17:14.402Z,1.50
2019-05-30T08:28:42.732Z,4.80
2019-05-30T08:34:33.134Z,1.10
2019-05-30T08:39:20.129Z,3.70
2019-05-30T08:44:23.858Z,1.97
2019-05-30T08:49:27.851Z,4.33
2019-05-30T08:54:32.216Z,1.60
2019-05-30T08:59:36.686Z,1.97
2019-05-30T09:04:40.529Z,2.63
2019-05-30T09:09:44.799Z,1.53
2019-05-30T09:14:48.486Z,1.73
2019-05-30T09:19:52.191Z,2.50
2019-05-30T09:24:55.927Z,4.12
2019-05-30T09:29:59.650Z,2.98
2019-05-30T09:35:03.554Z,14.83
2019-05-30T09:40:08.505Z,2.08
2019-05-30T09:45:14.522Z,1.30
2019-05-30T09:50:18.479Z,2.22
2019-05-30T09:55:22.836Z,2.67
2019-05-30T10:00:26.742Z,1.22
2019-05-30T10:05:30.464Z,2.98
2019-05-30T10:10:34.416Z,1.27
2019-05-30T10:15:38.464Z,1.80
2019-05-30T10:20:42.476Z,3.67
2019-05-30T10:25:47.837Z,0.82
2019-05-30T10:30:57.341Z,1.30
2019-05-30T10:36:07.271Z,2.02
2019-05-30T10:41:11.138Z,2.72
2019-05-30T10:46:20.791Z,1.40
2019-05-30T10:51:24.825Z,0.80
2019-05-30T10:56:28.669Z,1.05
2019-05-30T11:01:33.127Z,2.05
2019-05-30T11:07:06.820Z,2.27
2019-05-30T11:11:55.004Z,2.35
2019-05-30T11:16:58.706Z,3.30
2019-05-30T11:22:02.857Z,1.35
2019-05-30T11:27:06.987Z,0.70
2019-05-30T11:32:10.940Z,0.95
2019-05-30T11:37:18.808Z,0.95
2019-05-30T11:42:20.749Z,0.90
2019-05-30T11:47:27.112Z,1.07
2019-05-30T11:52:31.177Z,1.37
2019-05-30T11:57:38.446Z,1.05
2019-05-30T12:02:43.194Z,2.83
2019-05-30T12:07:50.599Z,1.75
2019-05-30T12:12:57.225Z,1.85
2019-05-30T12:18:07.897Z,0.90
2019-05-30T12:23:13.317Z,3.20
2019-05-30T12:28:19.023Z,0.80
2019-05-30T12:33:23.133Z,1.72
2019-05-30T12:38:29.013Z,1.00
2019-05-30T12:43:36.073Z,1.65
2019-05-30T12:48:41.818Z,1.35
2019-05-30T12:53:46.717Z,1.37
2019-05-30T12:58:51.689Z,2.25
2019-05-30T13:04:01.022Z,2.37
2019-05-30T13:09:09.053Z,1.40
2019-05-30T13:14:17.825Z,1.27
2019-05-30T13:19:24.857Z,1.98
2019-05-30T13:24:29.047Z,1.27
2019-05-30T13:29:33.898Z,1.17
2019-05-30T13:34:39.501Z,1.27
2019-05-30T13:39:43.563Z,1.22
2019-05-30T13:44:51.812Z,1.00
2019-05-30T13:49:56.399Z,2.22
2019-05-30T13:55:05.379Z,1.10
2019-05-30T14:00:10.750Z,1.40
2019-05-30T14:05:15.863Z,1.22
2019-05-30T14:10:19.780Z,1.50
2019-05-30T14:15:23.938Z,2.50
2019-05-30T14:20:27.696Z,2.08
2019-05-30T14:25:31.688Z,1.70
2019-05-30T14:30:35.406Z,2.20
2019-05-30T14:35:39.433Z,1.20
2019-05-30T14:40:45.305Z,4.55
2019-05-30T14:45:49.371Z,2.00
2019-05-30T14:50:53.086Z,1.47
2019-05-30T14:55:57.281Z,0.85
2019-05-30T15:01:01.125Z,3.20
2019-05-30T15:06:06.920Z,2.50
2019-05-30T15:11:13.650Z,1.30
2019-05-30T15:16:17.535Z,1.30
2019-05-30T15:21:21.473Z,2.67
2019-05-30T15:26:25.180Z,1.57
2019-05-30T15:31:28.922Z,1.32
2019-05-30T15:36:32.745Z,1.20
2019-05-30T15:41:36.735Z,1.12
2019-05-30T15:46:40.688Z,1.52
2019-05-30T15:51:44.379Z,1.35
2019-05-30T15:56:48.367Z,2.45
2019-05-30T16:01:52.124Z,1.85
2019-05-30T16:06:56.056Z,1.52
2019-05-30T16:11:59.790Z,1.35
2019-05-30T16:17:03.722Z,1.87
2019-05-30T16:22:07.739Z,4.85
2019-05-30T16:27:13.427Z,3.08
2019-05-30T16:32:19.174Z,1.00
2019-05-30T16:37:26.153Z,3.25
2019-05-30T16:42:30.951Z,2.35
2019-05-30T16:47:36.381Z,1.37
2019-05-30T16:52:41.272Z,4.05
2019-05-30T16:57:46.258Z,1.52
2019-05-30T17:02:50.307Z,1.90
2019-05-30T17:07:55.332Z,1.77
2019-05-30T17:13:00.763Z,1.25
2019-05-30T17:18:06.676Z,1.20
2019-05-30T17:23:13.943Z,2.33
2019-05-30T17:28:22.265Z,1.22
2019-05-30T17:33:28.264Z,1.65
2019-05-30T17:38:35.718Z,1.82
2019-05-30T17:43:43.122Z,1.70
2019-05-30T17:48:54.092Z,1.55
2019-05-30T17:53:59.923Z,1.47
2019-05-30T17:59:05.704Z,1.32
2019-05-30T18:04:12.100Z,1.50
2019-05-30T18:09:18.171Z,1.50
2019-05-30T18:14:25.058Z,1.72
2019-05-30T18:19:32.863Z,1.67
2019-05-30T18:24:36.834Z,1.92
2019-05-30T18:29:42.107Z,2.90
2019-05-30T18:34:47.100Z,1.92
2019-05-30T18:39:50.799Z,2.17
2019-05-30T18:44:55.244Z,2.85
2019-05-30T18:49:59.047Z,2.72
2019-05-30T18:55:05.421Z,4.67
2019-05-30T19:00:51.218Z,2.80
2019-05-30T19:05:55.501Z,4.37
2019-05-30T19:10:59.440Z,6.12
2019-05-30T19:16:03.313Z,5.22
2019-05-30T19:21:08.114Z,7.40
2019-05-30T19:26:12.151Z,5.67
2019-05-30T19:31:16.516Z,3.90
2019-05-30T19:36:20.275Z,4.47
2019-05-30T19:41:23.964Z,7.60
2019-05-30T19:46:28.050Z,10.08
2019-05-30T19:51:32.937Z,7.78
2019-05-30T19:56:40.156Z,11.12
2019-05-30T20:01:42.415Z,8.23
2019-05-30T20:06:46.085Z,9.23
2019-05-30T20:12:02.657Z,9.85
2019-05-30T20:16:55.486Z,8.57
2019-05-30T20:21:59.303Z,9.20
2019-05-30T20:27:03.055Z,10.67
2019-05-30T20:32:07.015Z,25.80
2019-05-30T20:37:10.677Z,14.10
2019-05-30T20:42:19.108Z,9.73
2019-05-30T20:47:19.803Z,7.20
2019-05-30T20:52:23.483Z,9.20
2019-05-30T20:57:27.199Z,9.63
2019-05-30T21:02:30.916Z,13.33
2019-05-30T21:07:35.854Z,8.00
2019-05-30T21:12:43.514Z,8.07
2019-05-30T21:17:46.386Z,9.93
2019-05-30T21:22:50.115Z,6.83
2019-05-30T21:27:53.793Z,6.27
2019-05-30T21:32:57.562Z,6.43
2019-05-30T21:38:01.457Z,5.83
2019-05-30T21:43:07.178Z,6.70
2019-05-30T21:48:10.805Z,8.03
2019-05-30T21:53:14.990Z,6.00
2019-05-30T21:58:18.698Z,6.07
2019-05-30T22:03:22.635Z,6.97
2019-05-30T22:08:26.321Z,4.27
2019-05-30T22:13:30.008Z,7.13
2019-05-30T22:18:33.698Z,7.63
2019-05-30T22:23:37.639Z,4.47
2019-05-30T22:28:42.260Z,4.93
2019-05-30T22:33:46.617Z,5.90
2019-05-30T22:38:50.987Z,5.43
2019-05-30T22:43:54.794Z,5.60
2019-05-30T22:48:58.507Z,5.20
2019-05-30T22:54:02.169Z,7.67
2019-05-30T22:59:06.041Z,4.33
2019-05-30T23:04:09.779Z,5.53
2019-05-30T23:09:14.008Z,3.67
2019-05-30T23:14:17.939Z,3.20
2019-05-30T23:19:21.835Z,5.23
2019-05-30T23:24:25.521Z,5.13
2019-05-30T23:29:30.622Z,4.17
2019-05-30T23:34:34.358Z,5.10
2019-05-30T23:39:38.065Z,6.47
2019-05-30T23:44:42.041Z,5.13
2019-05-30T23:49:45.972Z,7.40
2019-05-30T23:54:50.022Z,9.33
2019-05-30T23:59:54.798Z,6.37
